Aeroporto :
LOGIN :

Iscrizione | Disclaimer

   EN    FR    IT 

 










Sommario :    VFR   VFR Marginale   IFR   IFR Intensivo   IFR Molto Intensivo
Visibilità : 
Base nubi : 
>= 8 km
>= 3000ft
5 / 8 km
1000 / 3000 ft
1500m / 5 km
500 / 1000 ft
800 / 1500m
200 / 500 ft
< 800m
< 200 ft
Simboli :   Temporali  Nebbia  Neve Forte  Precipitazioni Forti  Vento > 20 kt
SIGMETs :   Varie  Temporali  Ghiacco  Turbolenza  Onda orograficha  Ceneri Vulcaniche






- Altitudine del aeroporto : 195 ft


LFMY - Salon de Provence

ULTIMO METAR :
  • 181730Z AUTO VRB03KT CAVOK 25/19 Q1017

METARs OBSOLETI :
  • 181700Z AUTO 18005KT 140V210 CAVOK 25/19 Q1017
  • 181630Z AUTO 18008KT 140V210 CAVOK 26/18 Q1017
  • 181600Z AUTO 19010KT CAVOK 26/17 Q1017
  • 181530Z AUTO 19009KT 160V240 CAVOK 27/18 Q1017
  • 181500Z AUTO 18010KT CAVOK 27/16 Q1017
  • 181430Z AUTO 18010KT 150V210 CAVOK 28/16 Q1017

TAF TAF LFMY
Valido dal 18 a 09 ore il 19 a 09 ore UTC


180800Z 1809/1909 18010KT CAVOK
BECMG 1823/1901 VRB02KT
TEMPO 1901/1909 SHRA BKN060TCU



MetMap, La meteo Aeronautica in un colpo d'occhio ! - Copyright ORBIFLY Dicembre 2007 - Disclaimer

ORBIFLY MET'MAP TEAM :

Programmazione e sviluppo : Alexandra Zaïnal
Concezione : Baudouin d'Aumeries
Aiuto per la programmazione : Marc-Olivier Méhu
Supporto tecnico e logistico : Manuel Goepfert
Aiuto per la traduzione : Arnaldo La Scala

Contatto : metmap@orbifly.com




FONTI E CREDITI :

   NOAA